sensor_id;sensor_type;location;lat;lon;timestamp;P1;durP1;ratioP1;P2;durP2;ratioP2
64293;SDS011;50636;45.596;5.258;2022-11-27T00:02:08;14.95;;;8.18;;
64293;SDS011;50636;45.596;5.258;2022-11-27T00:04:33;15.75;;;7.78;;
64293;SDS011;50636;45.596;5.258;2022-11-27T00:06:59;14.52;;;7.75;;
64293;SDS011;50636;45.596;5.258;2022-11-27T00:09:24;20.10;;;8.90;;
64293;SDS011;50636;45.596;5.258;2022-11-27T00:11:50;15.85;;;8.43;;
64293;SDS011;50636;45.596;5.258;2022-11-27T00:14:16;13.23;;;9.35;;
64293;SDS011;50636;45.596;5.258;2022-11-27T00:16:42;15.05;;;8.50;;
64293;SDS011;50636;45.596;5.258;2022-11-27T00:19:08;16.27;;;9.25;;
64293;SDS011;50636;45.596;5.258;2022-11-27T00:21:35;13.98;;;9.75;;
64293;SDS011;50636;45.596;5.258;2022-11-27T00:24:01;17.10;;;9.07;;
64293;SDS011;50636;45.596;5.258;2022-11-27T00:26:29;20.27;;;10.23;;
64293;SDS011;50636;45.596;5.258;2022-11-27T00:28:56;22.75;;;12.60;;
64293;SDS011;50636;45.596;5.258;2022-11-27T00:31:30;21.92;;;9.85;;
64293;SDS011;50636;45.596;5.258;2022-11-27T00:33:58;20.90;;;11.70;;
64293;SDS011;50636;45.596;5.258;2022-11-27T00:36:26;17.65;;;10.35;;
64293;SDS011;50636;45.596;5.258;2022-11-27T00:38:53;22.17;;;12.55;;
64293;SDS011;50636;45.596;5.258;2022-11-27T00:41:23;11.20;;;8.10;;
64293;SDS011;50636;45.596;5.258;2022-11-27T00:43:50;18.83;;;12.00;;
64293;SDS011;50636;45.596;5.258;2022-11-27T00:46:17;25.67;;;16.02;;
64293;SDS011;50636;45.596;5.258;2022-11-27T00:48:45;21.23;;;13.10;;
64293;SDS011;50636;45.596;5.258;2022-11-27T00:51:12;29.85;;;18.52;;
64293;SDS011;50636;45.596;5.258;2022-11-27T00:53:42;26.65;;;18.83;;
64293;SDS011;50636;45.596;5.258;2022-11-27T00:56:08;24.23;;;18.50;;
64293;SDS011;50636;45.596;5.258;2022-11-27T00:58:40;23.10;;;16.83;;
64293;SDS011;50636;45.596;5.258;2022-11-27T01:01:06;24.10;;;16.05;;
64293;SDS011;50636;45.596;5.258;2022-11-27T01:03:32;22.23;;;14.80;;
64293;SDS011;50636;45.596;5.258;2022-11-27T01:06:04;25.98;;;14.55;;
64293;SDS011;50636;45.596;5.258;2022-11-27T01:08:31;22.23;;;14.60;;
64293;SDS011;50636;45.596;5.258;2022-11-27T01:10:58;23.60;;;15.27;;
64293;SDS011;50636;45.596;5.258;2022-11-27T01:13:25;22.67;;;15.35;;
64293;SDS011;50636;45.596;5.258;2022-11-27T01:16:00;26.20;;;18.00;;
64293;SDS011;50636;45.596;5.258;2022-11-27T01:18:28;25.77;;;18.10;;
64293;SDS011;50636;45.596;5.258;2022-11-27T01:20:54;23.40;;;17.92;;
64293;SDS011;50636;45.596;5.258;2022-11-27T01:23:20;29.10;;;17.90;;
64293;SDS011;50636;45.596;5.258;2022-11-27T01:25:47;21.75;;;15.88;;
64293;SDS011;50636;45.596;5.258;2022-11-27T01:28:13;28.40;;;16.65;;
64293;SDS011;50636;45.596;5.258;2022-11-27T01:30:40;20.42;;;14.27;;
64293;SDS011;50636;45.596;5.258;2022-11-27T01:33:05;23.05;;;16.08;;
64293;SDS011;50636;45.596;5.258;2022-11-27T01:35:31;21.38;;;14.95;;
64293;SDS011;50636;45.596;5.258;2022-11-27T01:37:57;20.73;;;15.05;;
64293;SDS011;50636;45.596;5.258;2022-11-27T01:40:23;18.67;;;13.38;;
64293;SDS011;50636;45.596;5.258;2022-11-27T01:42:48;22.30;;;14.80;;
64293;SDS011;50636;45.596;5.258;2022-11-27T01:45:15;17.77;;;13.38;;
64293;SDS011;50636;45.596;5.258;2022-11-27T01:47:53;23.20;;;15.48;;
64293;SDS011;50636;45.596;5.258;2022-11-27T01:50:26;23.98;;;14.35;;
64293;SDS011;50636;45.596;5.258;2022-11-27T01:52:56;20.80;;;12.65;;
64293;SDS011;50636;45.596;5.258;2022-11-27T01:55:36;24.40;;;14.52;;
64293;SDS011;50636;45.596;5.258;2022-11-27T01:58:08;21.90;;;14.85;;
64293;SDS011;50636;45.596;5.258;2022-11-27T02:00:37;25.30;;;14.20;;
64293;SDS011;50636;45.596;5.258;2022-11-27T02:03:04;20.10;;;12.20;;
64293;SDS011;50636;45.596;5.258;2022-11-27T02:05:30;20.17;;;13.10;;
64293;SDS011;50636;45.596;5.258;2022-11-27T02:07:58;22.15;;;15.73;;
64293;SDS011;50636;45.596;5.258;2022-11-27T02:10:34;22.58;;;13.20;;
64293;SDS011;50636;45.596;5.258;2022-11-27T02:13:22;21.42;;;12.60;;
64293;SDS011;50636;45.596;5.258;2022-11-27T02:19:02;19.50;;;16.05;;
64293;SDS011;50636;45.596;5.258;2022-11-27T02:24:45;27.67;;;15.65;;
64293;SDS011;50636;45.596;5.258;2022-11-27T02:30:13;33.08;;;25.20;;
64293;SDS011;50636;45.596;5.258;2022-11-27T02:32:48;31.00;;;22.48;;
64293;SDS011;50636;45.596;5.258;2022-11-27T02:35:37;38.95;;;31.50;;
64293;SDS011;50636;45.596;5.258;2022-11-27T02:38:31;22.85;;;16.23;;
64293;SDS011;50636;45.596;5.258;2022-11-27T02:41:20;21.77;;;14.38;;
64293;SDS011;50636;45.596;5.258;2022-11-27T02:43:52;21.25;;;15.43;;
64293;SDS011;50636;45.596;5.258;2022-11-27T02:46:20;25.27;;;14.85;;
64293;SDS011;50636;45.596;5.258;2022-11-27T02:49:00;17.75;;;13.43;;
64293;SDS011;50636;45.596;5.258;2022-11-27T02:51:36;20.38;;;12.23;;
64293;SDS011;50636;45.596;5.258;2022-11-27T02:54:06;28.42;;;13.60;;
64293;SDS011;50636;45.596;5.258;2022-11-27T02:56:36;21.08;;;15.35;;
64293;SDS011;50636;45.596;5.258;2022-11-27T02:59:05;22.73;;;16.00;;
64293;SDS011;50636;45.596;5.258;2022-11-27T03:01:37;17.27;;;13.23;;
64293;SDS011;50636;45.596;5.258;2022-11-27T03:04:11;14.85;;;10.88;;
64293;SDS011;50636;45.596;5.258;2022-11-27T03:06:47;14.80;;;11.95;;
64293;SDS011;50636;45.596;5.258;2022-11-27T03:11:54;23.63;;;12.98;;
64293;SDS011;50636;45.596;5.258;2022-11-27T03:14:20;18.00;;;12.98;;
64293;SDS011;50636;45.596;5.258;2022-11-27T03:16:57;17.33;;;14.00;;
64293;SDS011;50636;45.596;5.258;2022-11-27T03:20:19;21.63;;;14.13;;
64293;SDS011;50636;45.596;5.258;2022-11-27T03:22:47;17.75;;;13.65;;
64293;SDS011;50636;45.596;5.258;2022-11-27T03:25:13;16.15;;;13.35;;
64293;SDS011;50636;45.596;5.258;2022-11-27T03:27:45;25.77;;;19.30;;
64293;SDS011;50636;45.596;5.258;2022-11-27T03:30:21;26.05;;;13.63;;
64293;SDS011;50636;45.596;5.258;2022-11-27T03:32:46;28.75;;;17.13;;
64293;SDS011;50636;45.596;5.258;2022-11-27T03:35:13;18.90;;;14.52;;
64293;SDS011;50636;45.596;5.258;2022-11-27T03:37:41;14.30;;;12.40;;
64293;SDS011;50636;45.596;5.258;2022-11-27T03:40:07;16.45;;;13.63;;
64293;SDS011;50636;45.596;5.258;2022-11-27T03:50:51;29.75;;;16.17;;
64293;SDS011;50636;45.596;5.258;2022-11-27T03:56:14;13.90;;;9.30;;
64293;SDS011;50636;45.596;5.258;2022-11-27T04:01:23;12.57;;;8.98;;
64293;SDS011;50636;45.596;5.258;2022-11-27T04:03:50;12.13;;;7.57;;
64293;SDS011;50636;45.596;5.258;2022-11-27T04:06:16;14.10;;;8.00;;
64293;SDS011;50636;45.596;5.258;2022-11-27T04:08:41;12.73;;;6.32;;
64293;SDS011;50636;45.596;5.258;2022-11-27T04:11:09;24.08;;;10.40;;
64293;SDS011;50636;45.596;5.258;2022-11-27T04:13:35;20.98;;;12.68;;
64293;SDS011;50636;45.596;5.258;2022-11-27T04:16:01;21.42;;;12.25;;
64293;SDS011;50636;45.596;5.258;2022-11-27T04:18:27;23.10;;;15.38;;
64293;SDS011;50636;45.596;5.258;2022-11-27T04:20:52;26.08;;;14.63;;
64293;SDS011;50636;45.596;5.258;2022-11-27T04:23:18;24.75;;;15.68;;
64293;SDS011;50636;45.596;5.258;2022-11-27T04:25:44;26.35;;;16.52;;
64293;SDS011;50636;45.596;5.258;2022-11-27T04:28:09;27.88;;;15.80;;
64293;SDS011;50636;45.596;5.258;2022-11-27T04:30:35;20.73;;;13.95;;
64293;SDS011;50636;45.596;5.258;2022-11-27T04:33:01;21.65;;;14.77;;
64293;SDS011;50636;45.596;5.258;2022-11-27T04:35:26;20.25;;;13.65;;
64293;SDS011;50636;45.596;5.258;2022-11-27T04:37:52;24.40;;;14.90;;
64293;SDS011;50636;45.596;5.258;2022-11-27T04:40:20;26.65;;;14.23;;
64293;SDS011;50636;45.596;5.258;2022-11-27T04:42:46;19.08;;;12.93;;
64293;SDS011;50636;45.596;5.258;2022-11-27T04:45:11;20.70;;;12.98;;
64293;SDS011;50636;45.596;5.258;2022-11-27T04:47:38;21.38;;;13.45;;
64293;SDS011;50636;45.596;5.258;2022-11-27T04:50:04;18.58;;;12.75;;
64293;SDS011;50636;45.596;5.258;2022-11-27T04:52:30;474.73;;;31.67;;
64293;SDS011;50636;45.596;5.258;2022-11-27T04:54:56;19.80;;;13.50;;
64293;SDS011;50636;45.596;5.258;2022-11-27T04:57:21;16.70;;;11.18;;
64293;SDS011;50636;45.596;5.258;2022-11-27T04:59:47;17.60;;;11.55;;
64293;SDS011;50636;45.596;5.258;2022-11-27T05:02:15;14.40;;;9.70;;
64293;SDS011;50636;45.596;5.258;2022-11-27T05:04:41;17.67;;;10.30;;
64293;SDS011;50636;45.596;5.258;2022-11-27T05:07:06;12.43;;;6.35;;
64293;SDS011;50636;45.596;5.258;2022-11-27T05:09:32;8.80;;;6.13;;
64293;SDS011;50636;45.596;5.258;2022-11-27T05:11:58;14.15;;;8.80;;
64293;SDS011;50636;45.596;5.258;2022-11-27T05:14:23;12.75;;;8.25;;
64293;SDS011;50636;45.596;5.258;2022-11-27T05:16:57;11.02;;;8.55;;
64293;SDS011;50636;45.596;5.258;2022-11-27T05:19:24;17.08;;;10.07;;
64293;SDS011;50636;45.596;5.258;2022-11-27T05:21:52;16.65;;;7.53;;
64293;SDS011;50636;45.596;5.258;2022-11-27T05:24:20;11.82;;;7.43;;
64293;SDS011;50636;45.596;5.258;2022-11-27T05:26:47;17.25;;;9.40;;
64293;SDS011;50636;45.596;5.258;2022-11-27T05:29:13;13.20;;;8.73;;
64293;SDS011;50636;45.596;5.258;2022-11-27T05:31:40;12.52;;;8.65;;
64293;SDS011;50636;45.596;5.258;2022-11-27T05:34:06;15.77;;;9.10;;
64293;SDS011;50636;45.596;5.258;2022-11-27T05:36:33;12.48;;;7.75;;
64293;SDS011;50636;45.596;5.258;2022-11-27T05:38:59;15.10;;;8.15;;
64293;SDS011;50636;45.596;5.258;2022-11-27T05:41:26;13.45;;;7.18;;
64293;SDS011;50636;45.596;5.258;2022-11-27T05:43:52;10.25;;;7.47;;
64293;SDS011;50636;45.596;5.258;2022-11-27T05:46:18;11.45;;;8.02;;
64293;SDS011;50636;45.596;5.258;2022-11-27T05:48:46;9.85;;;6.60;;
64293;SDS011;50636;45.596;5.258;2022-11-27T05:51:12;9.25;;;5.68;;
64293;SDS011;50636;45.596;5.258;2022-11-27T05:53:37;8.27;;;6.43;;
64293;SDS011;50636;45.596;5.258;2022-11-27T05:56:04;16.30;;;9.00;;
64293;SDS011;50636;45.596;5.258;2022-11-27T05:58:32;12.13;;;8.60;;
64293;SDS011;50636;45.596;5.258;2022-11-27T06:00:58;15.38;;;9.23;;
64293;SDS011;50636;45.596;5.258;2022-11-27T06:03:24;14.55;;;9.60;;
64293;SDS011;50636;45.596;5.258;2022-11-27T06:05:50;13.75;;;9.98;;
64293;SDS011;50636;45.596;5.258;2022-11-27T06:08:16;12.88;;;10.68;;
64293;SDS011;50636;45.596;5.258;2022-11-27T06:10:42;15.43;;;10.18;;
64293;SDS011;50636;45.596;5.258;2022-11-27T06:13:07;15.00;;;9.80;;
64293;SDS011;50636;45.596;5.258;2022-11-27T06:15:34;17.98;;;9.35;;
64293;SDS011;50636;45.596;5.258;2022-11-27T06:18:00;13.50;;;7.97;;
64293;SDS011;50636;45.596;5.258;2022-11-27T06:20:26;13.85;;;8.35;;
64293;SDS011;50636;45.596;5.258;2022-11-27T06:22:52;14.40;;;9.00;;
64293;SDS011;50636;45.596;5.258;2022-11-27T06:25:17;18.17;;;9.38;;
64293;SDS011;50636;45.596;5.258;2022-11-27T06:27:43;14.70;;;9.07;;
64293;SDS011;50636;45.596;5.258;2022-11-27T06:30:09;13.27;;;8.52;;
64293;SDS011;50636;45.596;5.258;2022-11-27T06:32:35;15.88;;;8.95;;
64293;SDS011;50636;45.596;5.258;2022-11-27T06:35:00;11.95;;;8.43;;
64293;SDS011;50636;45.596;5.258;2022-11-27T06:37:26;10.77;;;7.85;;
64293;SDS011;50636;45.596;5.258;2022-11-27T06:39:51;14.02;;;8.70;;
64293;SDS011;50636;45.596;5.258;2022-11-27T06:42:17;12.90;;;7.68;;
64293;SDS011;50636;45.596;5.258;2022-11-27T06:44:43;14.45;;;7.43;;
64293;SDS011;50636;45.596;5.258;2022-11-27T06:47:08;11.13;;;7.75;;
64293;SDS011;50636;45.596;5.258;2022-11-27T06:49:34;12.55;;;7.45;;
64293;SDS011;50636;45.596;5.258;2022-11-27T06:52:00;14.65;;;8.10;;
64293;SDS011;50636;45.596;5.258;2022-11-27T06:54:25;9.15;;;6.57;;
64293;SDS011;50636;45.596;5.258;2022-11-27T06:56:54;10.23;;;6.82;;
64293;SDS011;50636;45.596;5.258;2022-11-27T06:59:19;8.70;;;6.32;;
64293;SDS011;50636;45.596;5.258;2022-11-27T07:01:45;10.52;;;6.30;;
64293;SDS011;50636;45.596;5.258;2022-11-27T07:04:13;11.20;;;6.53;;
64293;SDS011;50636;45.596;5.258;2022-11-27T07:06:40;8.32;;;5.25;;
64293;SDS011;50636;45.596;5.258;2022-11-27T07:09:07;11.50;;;7.13;;
64293;SDS011;50636;45.596;5.258;2022-11-27T07:11:32;19.73;;;7.90;;
64293;SDS011;50636;45.596;5.258;2022-11-27T07:14:00;14.10;;;8.30;;
64293;SDS011;50636;45.596;5.258;2022-11-27T07:16:29;13.40;;;7.57;;
64293;SDS011;50636;45.596;5.258;2022-11-27T07:18:58;11.35;;;8.05;;
64293;SDS011;50636;45.596;5.258;2022-11-27T07:21:26;17.75;;;9.32;;
64293;SDS011;50636;45.596;5.258;2022-11-27T07:23:53;10.10;;;7.15;;
64293;SDS011;50636;45.596;5.258;2022-11-27T07:26:22;11.25;;;6.40;;
64293;SDS011;50636;45.596;5.258;2022-11-27T07:28:49;11.35;;;6.57;;
64293;SDS011;50636;45.596;5.258;2022-11-27T07:31:17;8.77;;;5.88;;
64293;SDS011;50636;45.596;5.258;2022-11-27T07:33:44;10.60;;;6.07;;
64293;SDS011;50636;45.596;5.258;2022-11-27T07:36:17;7.88;;;5.65;;
64293;SDS011;50636;45.596;5.258;2022-11-27T07:38:45;9.80;;;5.53;;
64293;SDS011;50636;45.596;5.258;2022-11-27T07:41:11;9.65;;;5.63;;
64293;SDS011;50636;45.596;5.258;2022-11-27T07:43:37;8.85;;;5.65;;
64293;SDS011;50636;45.596;5.258;2022-11-27T07:46:04;6.22;;;4.68;;
64293;SDS011;50636;45.596;5.258;2022-11-27T07:48:32;6.75;;;4.63;;
64293;SDS011;50636;45.596;5.258;2022-11-27T07:50:57;10.23;;;5.55;;
64293;SDS011;50636;45.596;5.258;2022-11-27T07:53:23;9.38;;;5.25;;
64293;SDS011;50636;45.596;5.258;2022-11-27T07:55:49;10.10;;;6.03;;
64293;SDS011;50636;45.596;5.258;2022-11-27T07:58:15;9.05;;;4.82;;
64293;SDS011;50636;45.596;5.258;2022-11-27T08:00:40;9.00;;;4.63;;
64293;SDS011;50636;45.596;5.258;2022-11-27T08:03:06;9.85;;;5.00;;
64293;SDS011;50636;45.596;5.258;2022-11-27T08:05:32;9.57;;;4.65;;
64293;SDS011;50636;45.596;5.258;2022-11-27T08:08:00;8.23;;;4.60;;
64293;SDS011;50636;45.596;5.258;2022-11-27T08:10:37;7.47;;;5.13;;
64293;SDS011;50636;45.596;5.258;2022-11-27T08:13:03;9.90;;;5.10;;
64293;SDS011;50636;45.596;5.258;2022-11-27T08:15:29;11.40;;;4.97;;
64293;SDS011;50636;45.596;5.258;2022-11-27T08:17:55;7.00;;;4.78;;
64293;SDS011;50636;45.596;5.258;2022-11-27T08:20:20;6.15;;;4.80;;
64293;SDS011;50636;45.596;5.258;2022-11-27T08:22:46;14.95;;;5.78;;
64293;SDS011;50636;45.596;5.258;2022-11-27T08:25:11;7.57;;;4.20;;
64293;SDS011;50636;45.596;5.258;2022-11-27T08:27:38;8.38;;;4.53;;
64293;SDS011;50636;45.596;5.258;2022-11-27T08:30:03;6.93;;;4.15;;
64293;SDS011;50636;45.596;5.258;2022-11-27T08:32:30;7.07;;;6.03;;
64293;SDS011;50636;45.596;5.258;2022-11-27T08:34:55;6.07;;;4.00;;
64293;SDS011;50636;45.596;5.258;2022-11-27T08:37:21;7.32;;;4.32;;
64293;SDS011;50636;45.596;5.258;2022-11-27T08:39:46;9.95;;;4.50;;
64293;SDS011;50636;45.596;5.258;2022-11-27T08:42:12;6.75;;;4.28;;
64293;SDS011;50636;45.596;5.258;2022-11-27T08:44:38;10.65;;;4.63;;
64293;SDS011;50636;45.596;5.258;2022-11-27T08:47:03;9.50;;;4.68;;
64293;SDS011;50636;45.596;5.258;2022-11-27T08:49:29;8.45;;;4.18;;
64293;SDS011;50636;45.596;5.258;2022-11-27T08:51:55;7.05;;;3.92;;
64293;SDS011;50636;45.596;5.258;2022-11-27T08:54:20;11.02;;;4.30;;
64293;SDS011;50636;45.596;5.258;2022-11-27T08:56:46;12.10;;;3.83;;
64293;SDS011;50636;45.596;5.258;2022-11-27T08:59:11;6.50;;;3.50;;
64293;SDS011;50636;45.596;5.258;2022-11-27T09:01:37;9.75;;;4.55;;
64293;SDS011;50636;45.596;5.258;2022-11-27T09:04:03;17.88;;;6.63;;
64293;SDS011;50636;45.596;5.258;2022-11-27T09:06:29;5.55;;;3.80;;
64293;SDS011;50636;45.596;5.258;2022-11-27T09:08:58;23.83;;;8.52;;
64293;SDS011;50636;45.596;5.258;2022-11-27T09:11:25;11.57;;;4.45;;
64293;SDS011;50636;45.596;5.258;2022-11-27T09:13:52;10.43;;;3.60;;
64293;SDS011;50636;45.596;5.258;2022-11-27T09:16:18;7.88;;;3.47;;
64293;SDS011;50636;45.596;5.258;2022-11-27T09:18:45;13.82;;;3.97;;
64293;SDS011;50636;45.596;5.258;2022-11-27T09:21:13;10.93;;;3.63;;
64293;SDS011;50636;45.596;5.258;2022-11-27T09:23:40;10.93;;;3.83;;
64293;SDS011;50636;45.596;5.258;2022-11-27T09:26:07;7.88;;;3.70;;
64293;SDS011;50636;45.596;5.258;2022-11-27T09:28:36;9.75;;;4.05;;
64293;SDS011;50636;45.596;5.258;2022-11-27T09:31:03;8.05;;;5.07;;
64293;SDS011;50636;45.596;5.258;2022-11-27T09:33:31;18.42;;;10.38;;
64293;SDS011;50636;45.596;5.258;2022-11-27T09:36:02;15.77;;;5.60;;
64293;SDS011;50636;45.596;5.258;2022-11-27T09:38:31;8.93;;;4.68;;
64293;SDS011;50636;45.596;5.258;2022-11-27T09:40:59;6.65;;;4.00;;
64293;SDS011;50636;45.596;5.258;2022-11-27T09:43:40;16.85;;;4.78;;
64293;SDS011;50636;45.596;5.258;2022-11-27T09:46:14;9.40;;;3.45;;
64293;SDS011;50636;45.596;5.258;2022-11-27T09:51:22;7.57;;;3.45;;
64293;SDS011;50636;45.596;5.258;2022-11-27T09:54:39;8.10;;;4.13;;
64293;SDS011;50636;45.596;5.258;2022-11-27T09:56:54;7.38;;;3.38;;
64293;SDS011;50636;45.596;5.258;2022-11-27T09:59:22;7.43;;;3.53;;
64293;SDS011;50636;45.596;5.258;2022-11-27T10:01:53;7.95;;;3.58;;
64293;SDS011;50636;45.596;5.258;2022-11-27T10:04:19;8.63;;;4.25;;
64293;SDS011;50636;45.596;5.258;2022-11-27T10:06:58;6.32;;;3.67;;
64293;SDS011;50636;45.596;5.258;2022-11-27T10:12:18;7.63;;;3.95;;
64293;SDS011;50636;45.596;5.258;2022-11-27T10:20:53;11.95;;;4.78;;
64293;SDS011;50636;45.596;5.258;2022-11-27T10:27:01;5.82;;;3.30;;
64293;SDS011;50636;45.596;5.258;2022-11-27T10:31:52;6.28;;;3.67;;
64293;SDS011;50636;45.596;5.258;2022-11-27T10:37:01;6.28;;;3.72;;
64293;SDS011;50636;45.596;5.258;2022-11-27T10:39:37;18.80;;;11.23;;
64293;SDS011;50636;45.596;5.258;2022-11-27T10:42:10;9.63;;;5.25;;
64293;SDS011;50636;45.596;5.258;2022-11-27T10:44:44;9.45;;;5.22;;
64293;SDS011;50636;45.596;5.258;2022-11-27T10:47:16;7.20;;;3.78;;
64293;SDS011;50636;45.596;5.258;2022-11-27T10:49:46;10.43;;;5.93;;
64293;SDS011;50636;45.596;5.258;2022-11-27T10:52:13;10.10;;;6.70;;
64293;SDS011;50636;45.596;5.258;2022-11-27T10:54:40;17.90;;;9.45;;
64293;SDS011;50636;45.596;5.258;2022-11-27T10:59:38;13.82;;;7.20;;
64293;SDS011;50636;45.596;5.258;2022-11-27T11:02:26;18.10;;;9.15;;
64293;SDS011;50636;45.596;5.258;2022-11-27T11:05:09;7.53;;;5.15;;
64293;SDS011;50636;45.596;5.258;2022-11-27T11:07:37;8.45;;;4.35;;
64293;SDS011;50636;45.596;5.258;2022-11-27T11:10:06;11.20;;;5.97;;
64293;SDS011;50636;45.596;5.258;2022-11-27T11:12:47;9.20;;;4.60;;
64293;SDS011;50636;45.596;5.258;2022-11-27T11:15:12;10.75;;;3.97;;
64293;SDS011;50636;45.596;5.258;2022-11-27T11:17:38;10.65;;;6.28;;
64293;SDS011;50636;45.596;5.258;2022-11-27T11:20:20;12.40;;;4.07;;
64293;SDS011;50636;45.596;5.258;2022-11-27T11:22:50;5.10;;;3.80;;
64293;SDS011;50636;45.596;5.258;2022-11-27T11:25:16;4.65;;;2.58;;
64293;SDS011;50636;45.596;5.258;2022-11-27T11:27:44;4.97;;;2.88;;
64293;SDS011;50636;45.596;5.258;2022-11-27T11:30:22;6.63;;;3.47;;
64293;SDS011;50636;45.596;5.258;2022-11-27T11:32:57;4.65;;;3.20;;
64293;SDS011;50636;45.596;5.258;2022-11-27T11:35:26;7.45;;;3.55;;
64293;SDS011;50636;45.596;5.258;2022-11-27T11:37:56;8.88;;;4.53;;
64293;SDS011;50636;45.596;5.258;2022-11-27T11:40:29;5.50;;;3.35;;
64293;SDS011;50636;45.596;5.258;2022-11-27T11:43:04;6.57;;;4.28;;
64293;SDS011;50636;45.596;5.258;2022-11-27T11:45:45;7.00;;;4.28;;
64293;SDS011;50636;45.596;5.258;2022-11-27T11:48:23;9.82;;;3.60;;
64293;SDS011;50636;45.596;5.258;2022-11-27T11:53:43;7.63;;;3.92;;
64293;SDS011;50636;45.596;5.258;2022-11-27T11:56:26;5.57;;;4.20;;
64293;SDS011;50636;45.596;5.258;2022-11-27T11:58:57;5.75;;;3.45;;
64293;SDS011;50636;45.596;5.258;2022-11-27T12:09:50;8.85;;;3.28;;
64293;SDS011;50636;45.596;5.258;2022-11-27T12:18:17;3.90;;;2.33;;
64293;SDS011;50636;45.596;5.258;2022-11-27T12:32:03;2.92;;;1.88;;
64293;SDS011;50636;45.596;5.258;2022-11-27T12:34:43;6.28;;;3.05;;
64293;SDS011;50636;45.596;5.258;2022-11-27T12:37:30;8.50;;;2.88;;
64293;SDS011;50636;45.596;5.258;2022-11-27T12:46:03;4.57;;;1.33;;
64293;SDS011;50636;45.596;5.258;2022-11-27T12:48:54;4.88;;;2.10;;
64293;SDS011;50636;45.596;5.258;2022-11-27T12:51:50;4.32;;;2.28;;
64293;SDS011;50636;45.596;5.258;2022-11-27T12:54:38;2.75;;;1.38;;
64293;SDS011;50636;45.596;5.258;2022-11-27T12:57:14;3.65;;;1.67;;
64293;SDS011;50636;45.596;5.258;2022-11-27T12:59:55;3.55;;;1.83;;
64293;SDS011;50636;45.596;5.258;2022-11-27T13:02:37;5.20;;;1.80;;
64293;SDS011;50636;45.596;5.258;2022-11-27T13:08:01;3.10;;;1.23;;
64293;SDS011;50636;45.596;5.258;2022-11-27T13:10:40;3.42;;;1.38;;
64293;SDS011;50636;45.596;5.258;2022-11-27T13:15:56;4.65;;;1.65;;
64293;SDS011;50636;45.596;5.258;2022-11-27T13:18:33;4.03;;;1.50;;
64293;SDS011;50636;45.596;5.258;2022-11-27T13:21:00;2.70;;;1.52;;
64293;SDS011;50636;45.596;5.258;2022-11-27T13:23:33;3.45;;;1.85;;
64293;SDS011;50636;45.596;5.258;2022-11-27T13:26:00;4.05;;;2.00;;
64293;SDS011;50636;45.596;5.258;2022-11-27T13:31:13;3.75;;;1.80;;
64293;SDS011;50636;45.596;5.258;2022-11-27T13:33:44;5.45;;;2.90;;
64293;SDS011;50636;45.596;5.258;2022-11-27T13:36:18;5.90;;;2.00;;
64293;SDS011;50636;45.596;5.258;2022-11-27T13:38:54;3.70;;;2.85;;
64293;SDS011;50636;45.596;5.258;2022-11-27T13:41:42;3.17;;;1.70;;
64293;SDS011;50636;45.596;5.258;2022-11-27T13:44:22;4.20;;;2.35;;
64293;SDS011;50636;45.596;5.258;2022-11-27T13:46:50;6.00;;;2.50;;
64293;SDS011;50636;45.596;5.258;2022-11-27T13:49:29;3.58;;;1.90;;
64293;SDS011;50636;45.596;5.258;2022-11-27T13:52:04;6.07;;;1.58;;
64293;SDS011;50636;45.596;5.258;2022-11-27T13:54:33;9.05;;;3.65;;
64293;SDS011;50636;45.596;5.258;2022-11-27T13:57:09;19.58;;;10.00;;
64293;SDS011;50636;45.596;5.258;2022-11-27T13:59:36;9.00;;;5.20;;
64293;SDS011;50636;45.596;5.258;2022-11-27T14:02:03;5.65;;;2.88;;
64293;SDS011;50636;45.596;5.258;2022-11-27T14:04:32;7.47;;;2.78;;
64293;SDS011;50636;45.596;5.258;2022-11-27T14:07:02;4.88;;;1.65;;
64293;SDS011;50636;45.596;5.258;2022-11-27T14:09:39;2.47;;;1.80;;
64293;SDS011;50636;45.596;5.258;2022-11-27T14:12:50;5.93;;;2.03;;
64293;SDS011;50636;45.596;5.258;2022-11-27T14:17:42;5.03;;;2.20;;
64293;SDS011;50636;45.596;5.258;2022-11-27T14:22:45;5.05;;;2.47;;
64293;SDS011;50636;45.596;5.258;2022-11-27T14:28:37;7.40;;;2.92;;
64293;SDS011;50636;45.596;5.258;2022-11-27T14:30:53;4.82;;;2.30;;
64293;SDS011;50636;45.596;5.258;2022-11-27T14:33:22;3.38;;;1.80;;
64293;SDS011;50636;45.596;5.258;2022-11-27T14:35:56;2.80;;;1.40;;
64293;SDS011;50636;45.596;5.258;2022-11-27T14:38:27;2.13;;;1.20;;
64293;SDS011;50636;45.596;5.258;2022-11-27T14:41:05;1.65;;;1.13;;
64293;SDS011;50636;45.596;5.258;2022-11-27T14:43:39;3.47;;;2.22;;
64293;SDS011;50636;45.596;5.258;2022-11-27T14:46:04;7.15;;;2.10;;
64293;SDS011;50636;45.596;5.258;2022-11-27T14:48:41;2.55;;;1.25;;
64293;SDS011;50636;45.596;5.258;2022-11-27T14:51:14;3.67;;;1.55;;
64293;SDS011;50636;45.596;5.258;2022-11-27T14:53:45;7.80;;;1.65;;
64293;SDS011;50636;45.596;5.258;2022-11-27T14:56:12;2.65;;;1.25;;
64293;SDS011;50636;45.596;5.258;2022-11-27T14:58:39;2.97;;;1.75;;
64293;SDS011;50636;45.596;5.258;2022-11-27T15:06:53;3.20;;;1.55;;
64293;SDS011;50636;45.596;5.258;2022-11-27T15:09:22;4.63;;;1.50;;
64293;SDS011;50636;45.596;5.258;2022-11-27T15:11:57;3.03;;;1.23;;
64293;SDS011;50636;45.596;5.258;2022-11-27T15:14:42;3.38;;;1.20;;
64293;SDS011;50636;45.596;5.258;2022-11-27T15:17:13;3.78;;;1.63;;
64293;SDS011;50636;45.596;5.258;2022-11-27T15:19:46;3.95;;;1.45;;
64293;SDS011;50636;45.596;5.258;2022-11-27T15:22:15;6.65;;;1.90;;
64293;SDS011;50636;45.596;5.258;2022-11-27T15:24:42;3.92;;;1.23;;
64293;SDS011;50636;45.596;5.258;2022-11-27T15:27:15;1.83;;;1.30;;
64293;SDS011;50636;45.596;5.258;2022-11-27T15:32:16;3.70;;;1.33;;
64293;SDS011;50636;45.596;5.258;2022-11-27T15:34:42;3.85;;;1.50;;
64293;SDS011;50636;45.596;5.258;2022-11-27T15:39:52;5.13;;;1.10;;
64293;SDS011;50636;45.596;5.258;2022-11-27T15:42:20;4.72;;;1.35;;
64293;SDS011;50636;45.596;5.258;2022-11-27T15:44:47;2.70;;;1.30;;
64293;SDS011;50636;45.596;5.258;2022-11-27T15:47:25;5.85;;;1.73;;
64293;SDS011;50636;45.596;5.258;2022-11-27T15:49:56;1.80;;;0.82;;
64293;SDS011;50636;45.596;5.258;2022-11-27T15:52:22;3.60;;;1.77;;
64293;SDS011;50636;45.596;5.258;2022-11-27T15:54:49;3.80;;;1.58;;
64293;SDS011;50636;45.596;5.258;2022-11-27T15:57:15;4.32;;;1.40;;
64293;SDS011;50636;45.596;5.258;2022-11-27T15:59:41;3.45;;;1.10;;
64293;SDS011;50636;45.596;5.258;2022-11-27T16:02:06;3.38;;;1.50;;
64293;SDS011;50636;45.596;5.258;2022-11-27T16:04:34;6.03;;;2.05;;
64293;SDS011;50636;45.596;5.258;2022-11-27T16:06:59;5.75;;;1.52;;
64293;SDS011;50636;45.596;5.258;2022-11-27T16:09:25;5.18;;;1.83;;
64293;SDS011;50636;45.596;5.258;2022-11-27T16:11:51;5.35;;;2.33;;
64293;SDS011;50636;45.596;5.258;2022-11-27T16:14:17;5.75;;;1.60;;
64293;SDS011;50636;45.596;5.258;2022-11-27T16:16:43;4.07;;;1.95;;
64293;SDS011;50636;45.596;5.258;2022-11-27T16:19:08;6.18;;;2.05;;
64293;SDS011;50636;45.596;5.258;2022-11-27T16:21:36;4.93;;;1.92;;
64293;SDS011;50636;45.596;5.258;2022-11-27T16:24:03;5.18;;;2.63;;
64293;SDS011;50636;45.596;5.258;2022-11-27T16:26:30;5.97;;;2.38;;
64293;SDS011;50636;45.596;5.258;2022-11-27T16:28:57;5.88;;;2.15;;
64293;SDS011;50636;45.596;5.258;2022-11-27T16:31:23;7.40;;;1.73;;
64293;SDS011;50636;45.596;5.258;2022-11-27T16:33:50;3.53;;;2.33;;
64293;SDS011;50636;45.596;5.258;2022-11-27T16:36:17;6.57;;;2.20;;
64293;SDS011;50636;45.596;5.258;2022-11-27T16:38:44;2.38;;;1.45;;
64293;SDS011;50636;45.596;5.258;2022-11-27T16:41:14;6.35;;;1.50;;